sensor_id;sensor_type;location;lat;lon;timestamp;temperature;humidity
41762;DHT22;27441;50.860;0.258;2022-10-17T00:01:09;17.00;99.90
41762;DHT22;27441;50.860;0.258;2022-10-17T00:03:36;17.00;99.90
41762;DHT22;27441;50.860;0.258;2022-10-17T00:06:20;17.00;99.90
41762;DHT22;27441;50.860;0.258;2022-10-17T00:08:46;17.00;99.90
41762;DHT22;27441;50.860;0.258;2022-10-17T00:11:17;17.10;99.90
41762;DHT22;27441;50.860;0.258;2022-10-17T00:13:45;17.10;99.90
41762;DHT22;27441;50.860;0.258;2022-10-17T00:16:10;17.10;99.90
41762;DHT22;27441;50.860;0.258;2022-10-17T00:18:36;17.10;99.90
41762;DHT22;27441;50.860;0.258;2022-10-17T00:21:02;17.10;99.90
41762;DHT22;27441;50.860;0.258;2022-10-17T00:23:28;17.10;99.90
41762;DHT22;27441;50.860;0.258;2022-10-17T00:26:01;17.20;99.90
41762;DHT22;27441;50.860;0.258;2022-10-17T00:28:29;17.20;99.90
41762;DHT22;27441;50.860;0.258;2022-10-17T00:30:59;17.10;99.90
41762;DHT22;27441;50.860;0.258;2022-10-17T00:33:27;17.20;99.90
41762;DHT22;27441;50.860;0.258;2022-10-17T00:36:08;17.10;99.90
41762;DHT22;27441;50.860;0.258;2022-10-17T00:38:35;17.20;99.90
41762;DHT22;27441;50.860;0.258;2022-10-17T00:41:01;17.10;99.90
41762;DHT22;27441;50.860;0.258;2022-10-17T00:43:28;17.10;99.90
41762;DHT22;27441;50.860;0.258;2022-10-17T00:45:55;17.10;99.90
41762;DHT22;27441;50.860;0.258;2022-10-17T00:48:21;17.10;99.90
41762;DHT22;27441;50.860;0.258;2022-10-17T00:50:49;17.00;99.90
41762;DHT22;27441;50.860;0.258;2022-10-17T00:53:15;17.00;99.90
41762;DHT22;27441;50.860;0.258;2022-10-17T00:55:48;17.00;99.90
41762;DHT22;27441;50.860;0.258;2022-10-17T00:58:15;17.00;99.90
41762;DHT22;27441;50.860;0.258;2022-10-17T01:00:42;17.00;99.90
41762;DHT22;27441;50.860;0.258;2022-10-17T01:03:08;17.00;99.90
41762;DHT22;27441;50.860;0.258;2022-10-17T01:05:34;17.10;99.90
41762;DHT22;27441;50.860;0.258;2022-10-17T01:08:01;17.10;99.90
41762;DHT22;27441;50.860;0.258;2022-10-17T01:10:32;17.10;99.90
41762;DHT22;27441;50.860;0.258;2022-10-17T01:15:58;17.00;99.90
41762;DHT22;27441;50.860;0.258;2022-10-17T01:32:34;16.90;99.90
41762;DHT22;27441;50.860;0.258;2022-10-17T01:35:03;16.90;99.90
41762;DHT22;27441;50.860;0.258;2022-10-17T01:45:32;16.80;99.90
41762;DHT22;27441;50.860;0.258;2022-10-17T01:48:06;16.80;99.90
41762;DHT22;27441;50.860;0.258;2022-10-17T01:50:38;16.90;99.90
41762;DHT22;27441;50.860;0.258;2022-10-17T01:53:27;16.90;99.90
41762;DHT22;27441;50.860;0.258;2022-10-17T01:55:56;16.80;99.90
41762;DHT22;27441;50.860;0.258;2022-10-17T01:58:34;16.80;99.90
41762;DHT22;27441;50.860;0.258;2022-10-17T02:01:03;16.80;99.90
41762;DHT22;27441;50.860;0.258;2022-10-17T02:03:30;16.80;99.90
41762;DHT22;27441;50.860;0.258;2022-10-17T02:05:59;16.80;99.90
41762;DHT22;27441;50.860;0.258;2022-10-17T02:08:40;16.70;99.90
41762;DHT22;27441;50.860;0.258;2022-10-17T02:11:15;16.60;99.90
41762;DHT22;27441;50.860;0.258;2022-10-17T02:14:02;16.70;99.90
41762;DHT22;27441;50.860;0.258;2022-10-17T02:25:13;16.60;99.90
41762;DHT22;27441;50.860;0.258;2022-10-17T02:32:46;16.60;99.90
41762;DHT22;27441;50.860;0.258;2022-10-17T02:35:15;16.50;99.90
41762;DHT22;27441;50.860;0.258;2022-10-17T02:37:43;16.60;99.90
41762;DHT22;27441;50.860;0.258;2022-10-17T02:40:12;16.50;99.90
41762;DHT22;27441;50.860;0.258;2022-10-17T02:42:40;16.50;99.90
41762;DHT22;27441;50.860;0.258;2022-10-17T02:45:08;16.50;99.90
41762;DHT22;27441;50.860;0.258;2022-10-17T02:47:40;16.50;99.90
41762;DHT22;27441;50.860;0.258;2022-10-17T02:50:08;16.40;99.90
41762;DHT22;27441;50.860;0.258;2022-10-17T02:52:47;16.40;99.90
41762;DHT22;27441;50.860;0.258;2022-10-17T02:55:24;16.40;99.90
41762;DHT22;27441;50.860;0.258;2022-10-17T02:57:53;16.40;99.90
41762;DHT22;27441;50.860;0.258;2022-10-17T03:00:21;16.40;99.90
41762;DHT22;27441;50.860;0.258;2022-10-17T03:02:50;16.30;99.90
41762;DHT22;27441;50.860;0.258;2022-10-17T03:05:22;16.30;99.90
41762;DHT22;27441;50.860;0.258;2022-10-17T03:07:48;16.30;99.90
41762;DHT22;27441;50.860;0.258;2022-10-17T03:10:14;16.40;99.90
41762;DHT22;27441;50.860;0.258;2022-10-17T03:12:40;16.30;99.90
41762;DHT22;27441;50.860;0.258;2022-10-17T03:15:07;16.40;99.90
41762;DHT22;27441;50.860;0.258;2022-10-17T03:17:33;16.40;99.90
41762;DHT22;27441;50.860;0.258;2022-10-17T03:19:59;16.40;99.90
41762;DHT22;27441;50.860;0.258;2022-10-17T03:22:25;16.30;99.90
41762;DHT22;27441;50.860;0.258;2022-10-17T03:24:50;16.20;99.90
41762;DHT22;27441;50.860;0.258;2022-10-17T03:27:16;16.30;99.90
41762;DHT22;27441;50.860;0.258;2022-10-17T03:29:42;16.20;99.90
41762;DHT22;27441;50.860;0.258;2022-10-17T03:32:07;16.20;99.90
41762;DHT22;27441;50.860;0.258;2022-10-17T03:34:33;16.20;99.90
41762;DHT22;27441;50.860;0.258;2022-10-17T03:36:59;16.20;99.90
41762;DHT22;27441;50.860;0.258;2022-10-17T03:39:24;16.20;99.90
41762;DHT22;27441;50.860;0.258;2022-10-17T03:41:50;16.20;99.90
41762;DHT22;27441;50.860;0.258;2022-10-17T03:44:16;16.20;99.90
41762;DHT22;27441;50.860;0.258;2022-10-17T03:46:42;16.20;99.90
41762;DHT22;27441;50.860;0.258;2022-10-17T03:49:08;16.20;99.90
41762;DHT22;27441;50.860;0.258;2022-10-17T03:51:34;16.20;99.90
41762;DHT22;27441;50.860;0.258;2022-10-17T03:54:00;16.20;99.90
41762;DHT22;27441;50.860;0.258;2022-10-17T03:56:26;16.30;99.90
41762;DHT22;27441;50.860;0.258;2022-10-17T03:58:53;16.30;99.90
41762;DHT22;27441;50.860;0.258;2022-10-17T04:01:19;16.20;99.90
41762;DHT22;27441;50.860;0.258;2022-10-17T04:03:49;16.30;99.90
41762;DHT22;27441;50.860;0.258;2022-10-17T04:06:15;16.30;99.90
41762;DHT22;27441;50.860;0.258;2022-10-17T04:08:41;16.20;99.90
41762;DHT22;27441;50.860;0.258;2022-10-17T04:11:09;16.20;99.90
41762;DHT22;27441;50.860;0.258;2022-10-17T04:13:35;16.20;99.90
41762;DHT22;27441;50.860;0.258;2022-10-17T04:16:04;16.20;99.90
41762;DHT22;27441;50.860;0.258;2022-10-17T04:18:30;16.20;99.90
41762;DHT22;27441;50.860;0.258;2022-10-17T04:20:56;16.20;99.90
41762;DHT22;27441;50.860;0.258;2022-10-17T04:23:22;16.20;99.90
41762;DHT22;27441;50.860;0.258;2022-10-17T04:25:48;16.20;99.90
41762;DHT22;27441;50.860;0.258;2022-10-17T04:28:14;16.20;99.90
41762;DHT22;27441;50.860;0.258;2022-10-17T04:30:40;16.10;99.90
41762;DHT22;27441;50.860;0.258;2022-10-17T04:33:06;16.20;99.90
41762;DHT22;27441;50.860;0.258;2022-10-17T04:35:32;16.10;99.90
41762;DHT22;27441;50.860;0.258;2022-10-17T04:37:57;16.10;99.90
41762;DHT22;27441;50.860;0.258;2022-10-17T04:40:23;16.10;99.90
41762;DHT22;27441;50.860;0.258;2022-10-17T04:42:49;16.10;99.90
41762;DHT22;27441;50.860;0.258;2022-10-17T04:45:14;16.10;99.90
41762;DHT22;27441;50.860;0.258;2022-10-17T04:47:40;16.10;99.90
41762;DHT22;27441;50.860;0.258;2022-10-17T04:50:06;16.20;99.90
41762;DHT22;27441;50.860;0.258;2022-10-17T04:52:34;16.10;99.90
41762;DHT22;27441;50.860;0.258;2022-10-17T04:55:03;16.10;99.90
41762;DHT22;27441;50.860;0.258;2022-10-17T04:57:29;16.10;99.90
41762;DHT22;27441;50.860;0.258;2022-10-17T04:59:55;16.10;99.90
41762;DHT22;27441;50.860;0.258;2022-10-17T05:02:20;16.20;99.90
41762;DHT22;27441;50.860;0.258;2022-10-17T05:04:46;16.20;99.90
41762;DHT22;27441;50.860;0.258;2022-10-17T05:07:12;16.20;99.90
41762;DHT22;27441;50.860;0.258;2022-10-17T05:09:37;16.20;99.90
41762;DHT22;27441;50.860;0.258;2022-10-17T05:12:03;16.20;99.90
41762;DHT22;27441;50.860;0.258;2022-10-17T05:14:29;16.20;99.90
41762;DHT22;27441;50.860;0.258;2022-10-17T05:16:55;16.20;99.90
41762;DHT22;27441;50.860;0.258;2022-10-17T05:19:20;16.20;99.90
41762;DHT22;27441;50.860;0.258;2022-10-17T05:21:46;16.20;99.90
41762;DHT22;27441;50.860;0.258;2022-10-17T05:24:13;16.20;99.90
41762;DHT22;27441;50.860;0.258;2022-10-17T05:26:39;16.20;99.90
41762;DHT22;27441;50.860;0.258;2022-10-17T05:29:05;16.20;99.90
41762;DHT22;27441;50.860;0.258;2022-10-17T05:31:31;16.20;99.90
41762;DHT22;27441;50.860;0.258;2022-10-17T05:34:01;16.20;99.90
41762;DHT22;27441;50.860;0.258;2022-10-17T05:36:27;16.30;99.90
41762;DHT22;27441;50.860;0.258;2022-10-17T05:38:53;16.20;99.90
41762;DHT22;27441;50.860;0.258;2022-10-17T05:41:19;16.20;99.90
41762;DHT22;27441;50.860;0.258;2022-10-17T05:43:45;16.30;99.90
41762;DHT22;27441;50.860;0.258;2022-10-17T05:46:11;16.30;99.90
41762;DHT22;27441;50.860;0.258;2022-10-17T05:48:37;16.30;99.90
41762;DHT22;27441;50.860;0.258;2022-10-17T05:51:05;16.20;99.90
41762;DHT22;27441;50.860;0.258;2022-10-17T05:53:34;16.20;99.90
41762;DHT22;27441;50.860;0.258;2022-10-17T05:56:02;16.20;99.90
41762;DHT22;27441;50.860;0.258;2022-10-17T05:58:29;16.10;99.90
41762;DHT22;27441;50.860;0.258;2022-10-17T06:01:05;16.10;99.90
41762;DHT22;27441;50.860;0.258;2022-10-17T06:03:31;16.10;99.90
41762;DHT22;27441;50.860;0.258;2022-10-17T06:06:09;16.10;99.90
41762;DHT22;27441;50.860;0.258;2022-10-17T06:08:34;16.10;99.90
41762;DHT22;27441;50.860;0.258;2022-10-17T06:11:00;16.00;99.90
41762;DHT22;27441;50.860;0.258;2022-10-17T06:13:26;16.00;99.90
41762;DHT22;27441;50.860;0.258;2022-10-17T06:15:52;16.00;99.90
41762;DHT22;27441;50.860;0.258;2022-10-17T06:18:17;16.00;99.90
41762;DHT22;27441;50.860;0.258;2022-10-17T06:20:43;15.90;99.90
41762;DHT22;27441;50.860;0.258;2022-10-17T06:23:09;15.90;99.90
41762;DHT22;27441;50.860;0.258;2022-10-17T06:25:35;15.80;99.90
41762;DHT22;27441;50.860;0.258;2022-10-17T06:28:00;15.80;99.90
41762;DHT22;27441;50.860;0.258;2022-10-17T06:30:26;15.90;99.90
41762;DHT22;27441;50.860;0.258;2022-10-17T06:32:52;15.90;99.90
41762;DHT22;27441;50.860;0.258;2022-10-17T06:35:19;15.90;99.90
41762;DHT22;27441;50.860;0.258;2022-10-17T06:37:45;15.80;99.90
41762;DHT22;27441;50.860;0.258;2022-10-17T06:40:11;15.80;99.90
41762;DHT22;27441;50.860;0.258;2022-10-17T06:42:40;15.80;99.90
41762;DHT22;27441;50.860;0.258;2022-10-17T06:45:06;15.80;99.90
41762;DHT22;27441;50.860;0.258;2022-10-17T06:47:33;15.80;99.90
41762;DHT22;27441;50.860;0.258;2022-10-17T06:49:58;15.80;99.90
41762;DHT22;27441;50.860;0.258;2022-10-17T06:52:24;15.80;99.90
41762;DHT22;27441;50.860;0.258;2022-10-17T06:54:50;15.80;99.90
41762;DHT22;27441;50.860;0.258;2022-10-17T06:57:18;15.70;99.90
41762;DHT22;27441;50.860;0.258;2022-10-17T06:59:44;15.70;99.90
41762;DHT22;27441;50.860;0.258;2022-10-17T07:02:10;15.70;99.90
41762;DHT22;27441;50.860;0.258;2022-10-17T07:04:36;15.70;99.90
41762;DHT22;27441;50.860;0.258;2022-10-17T07:07:01;15.70;99.90
41762;DHT22;27441;50.860;0.258;2022-10-17T07:09:30;15.70;99.90
41762;DHT22;27441;50.860;0.258;2022-10-17T07:11:57;15.70;99.90
41762;DHT22;27441;50.860;0.258;2022-10-17T07:14:25;15.70;99.90
41762;DHT22;27441;50.860;0.258;2022-10-17T07:16:57;15.70;99.90
41762;DHT22;27441;50.860;0.258;2022-10-17T07:19:23;15.70;99.90
41762;DHT22;27441;50.860;0.258;2022-10-17T07:21:49;15.70;99.90
41762;DHT22;27441;50.860;0.258;2022-10-17T07:24:15;15.60;99.90
41762;DHT22;27441;50.860;0.258;2022-10-17T07:26:40;15.60;99.90
41762;DHT22;27441;50.860;0.258;2022-10-17T07:29:06;15.60;99.90
41762;DHT22;27441;50.860;0.258;2022-10-17T07:31:32;15.50;99.90
41762;DHT22;27441;50.860;0.258;2022-10-17T07:34:01;15.50;99.90
41762;DHT22;27441;50.860;0.258;2022-10-17T07:36:27;15.50;99.90
41762;DHT22;27441;50.860;0.258;2022-10-17T07:38:53;15.50;99.90
41762;DHT22;27441;50.860;0.258;2022-10-17T07:41:19;15.50;99.90
41762;DHT22;27441;50.860;0.258;2022-10-17T07:43:45;15.50;99.90
41762;DHT22;27441;50.860;0.258;2022-10-17T07:46:11;15.50;99.90
41762;DHT22;27441;50.860;0.258;2022-10-17T07:48:38;15.40;99.90
41762;DHT22;27441;50.860;0.258;2022-10-17T07:51:06;15.50;99.90
41762;DHT22;27441;50.860;0.258;2022-10-17T07:53:41;15.40;99.90
41762;DHT22;27441;50.860;0.258;2022-10-17T07:56:08;15.40;99.90
41762;DHT22;27441;50.860;0.258;2022-10-17T07:58:34;15.40;99.90
41762;DHT22;27441;50.860;0.258;2022-10-17T08:01:05;15.40;99.90
41762;DHT22;27441;50.860;0.258;2022-10-17T08:03:31;15.40;99.90
41762;DHT22;27441;50.860;0.258;2022-10-17T08:05:58;15.40;99.90
41762;DHT22;27441;50.860;0.258;2022-10-17T08:08:25;15.50;99.90
41762;DHT22;27441;50.860;0.258;2022-10-17T08:10:51;15.40;99.90
41762;DHT22;27441;50.860;0.258;2022-10-17T08:13:16;15.50;99.90
41762;DHT22;27441;50.860;0.258;2022-10-17T08:15:42;15.50;99.90
41762;DHT22;27441;50.860;0.258;2022-10-17T08:18:08;15.50;99.90
41762;DHT22;27441;50.860;0.258;2022-10-17T08:20:34;15.50;99.90
41762;DHT22;27441;50.860;0.258;2022-10-17T08:23:00;15.50;99.90
41762;DHT22;27441;50.860;0.258;2022-10-17T08:25:26;15.50;99.90
41762;DHT22;27441;50.860;0.258;2022-10-17T08:27:51;15.60;99.90
41762;DHT22;27441;50.860;0.258;2022-10-17T08:30:17;15.60;99.90
41762;DHT22;27441;50.860;0.258;2022-10-17T08:32:43;15.60;99.90
41762;DHT22;27441;50.860;0.258;2022-10-17T08:35:09;15.70;99.90
41762;DHT22;27441;50.860;0.258;2022-10-17T08:37:35;15.60;99.90
41762;DHT22;27441;50.860;0.258;2022-10-17T08:40:01;15.60;99.90
41762;DHT22;27441;50.860;0.258;2022-10-17T08:42:33;15.50;99.90
41762;DHT22;27441;50.860;0.258;2022-10-17T08:45:24;15.50;99.90
41762;DHT22;27441;50.860;0.258;2022-10-17T08:47:57;15.40;99.90
41762;DHT22;27441;50.860;0.258;2022-10-17T08:50:26;15.40;99.90
41762;DHT22;27441;50.860;0.258;2022-10-17T08:53:00;15.40;99.90
41762;DHT22;27441;50.860;0.258;2022-10-17T08:55:38;15.40;99.90
41762;DHT22;27441;50.860;0.258;2022-10-17T08:58:18;15.40;99.90
41762;DHT22;27441;50.860;0.258;2022-10-17T09:18:02;15.50;99.90
41762;DHT22;27441;50.860;0.258;2022-10-17T09:20:52;15.50;99.90
41762;DHT22;27441;50.860;0.258;2022-10-17T09:23:34;15.60;99.90
41762;DHT22;27441;50.860;0.258;2022-10-17T09:26:01;15.70;99.90
41762;DHT22;27441;50.860;0.258;2022-10-17T09:28:31;15.80;99.90
41762;DHT22;27441;50.860;0.258;2022-10-17T09:33:44;16.00;99.90
41762;DHT22;27441;50.860;0.258;2022-10-17T09:36:14;16.10;99.90
41762;DHT22;27441;50.860;0.258;2022-10-17T09:38:48;16.20;99.90
41762;DHT22;27441;50.860;0.258;2022-10-17T09:41:30;16.30;99.90
41762;DHT22;27441;50.860;0.258;2022-10-17T09:44:06;16.30;99.90
41762;DHT22;27441;50.860;0.258;2022-10-17T09:46:37;16.40;99.90
41762;DHT22;27441;50.860;0.258;2022-10-17T09:51:32;16.40;99.90
41762;DHT22;27441;50.860;0.258;2022-10-17T09:54:03;16.50;99.90
41762;DHT22;27441;50.860;0.258;2022-10-17T09:56:30;16.50;99.90
41762;DHT22;27441;50.860;0.258;2022-10-17T09:58:56;16.50;99.90
41762;DHT22;27441;50.860;0.258;2022-10-17T10:01:28;16.60;99.90
41762;DHT22;27441;50.860;0.258;2022-10-17T10:04:14;16.60;99.90
41762;DHT22;27441;50.860;0.258;2022-10-17T10:07:00;16.70;99.90
41762;DHT22;27441;50.860;0.258;2022-10-17T10:09:29;16.70;99.90
41762;DHT22;27441;50.860;0.258;2022-10-17T10:11:56;16.70;99.90
41762;DHT22;27441;50.860;0.258;2022-10-17T10:14:31;16.80;99.90
41762;DHT22;27441;50.860;0.258;2022-10-17T10:17:05;16.90;99.90
41762;DHT22;27441;50.860;0.258;2022-10-17T10:19:50;17.00;99.90
41762;DHT22;27441;50.860;0.258;2022-10-17T10:22:17;17.10;99.90
41762;DHT22;27441;50.860;0.258;2022-10-17T10:24:43;17.20;99.90
41762;DHT22;27441;50.860;0.258;2022-10-17T10:27:15;17.20;99.90
41762;DHT22;27441;50.860;0.258;2022-10-17T10:29:51;17.50;99.90
41762;DHT22;27441;50.860;0.258;2022-10-17T10:32:28;17.90;99.90
41762;DHT22;27441;50.860;0.258;2022-10-17T10:35:05;18.10;99.90
41762;DHT22;27441;50.860;0.258;2022-10-17T10:37:40;18.00;99.90
41762;DHT22;27441;50.860;0.258;2022-10-17T10:40:35;18.00;99.90
41762;DHT22;27441;50.860;0.258;2022-10-17T10:43:03;18.00;99.90
41762;DHT22;27441;50.860;0.258;2022-10-17T10:48:05;18.20;99.90
41762;DHT22;27441;50.860;0.258;2022-10-17T10:53:14;18.30;99.90
41762;DHT22;27441;50.860;0.258;2022-10-17T10:56:13;18.40;99.90
41762;DHT22;27441;50.860;0.258;2022-10-17T10:58:48;18.70;99.90
41762;DHT22;27441;50.860;0.258;2022-10-17T11:06:39;19.10;99.90
41762;DHT22;27441;50.860;0.258;2022-10-17T11:09:41;19.30;99.90
41762;DHT22;27441;50.860;0.258;2022-10-17T11:12:19;19.40;99.90
41762;DHT22;27441;50.860;0.258;2022-10-17T11:15:00;19.40;99.90
41762;DHT22;27441;50.860;0.258;2022-10-17T11:17:34;19.40;99.90
41762;DHT22;27441;50.860;0.258;2022-10-17T11:22:55;19.50;99.90
41762;DHT22;27441;50.860;0.258;2022-10-17T11:27:49;19.00;99.90
41762;DHT22;27441;50.860;0.258;2022-10-17T11:30:15;18.70;99.90
41762;DHT22;27441;50.860;0.258;2022-10-17T11:33:00;18.50;99.90
41762;DHT22;27441;50.860;0.258;2022-10-17T11:35:33;18.40;99.90
41762;DHT22;27441;50.860;0.258;2022-10-17T11:38:32;18.40;99.90
41762;DHT22;27441;50.860;0.258;2022-10-17T11:41:01;18.40;99.90
41762;DHT22;27441;50.860;0.258;2022-10-17T11:43:34;18.50;99.90
41762;DHT22;27441;50.860;0.258;2022-10-17T11:46:14;18.50;99.90
41762;DHT22;27441;50.860;0.258;2022-10-17T11:49:08;18.60;99.90
41762;DHT22;27441;50.860;0.258;2022-10-17T11:51:42;18.30;99.90
41762;DHT22;27441;50.860;0.258;2022-10-17T11:54:29;18.10;99.90
41762;DHT22;27441;50.860;0.258;2022-10-17T12:00:17;17.80;99.90
41762;DHT22;27441;50.860;0.258;2022-10-17T12:03:04;17.60;99.90
41762;DHT22;27441;50.860;0.258;2022-10-17T12:08:29;17.60;99.90
41762;DHT22;27441;50.860;0.258;2022-10-17T12:19:13;17.70;99.90
41762;DHT22;27441;50.860;0.258;2022-10-17T12:24:41;17.80;99.90
41762;DHT22;27441;50.860;0.258;2022-10-17T12:27:31;17.80;99.90
41762;DHT22;27441;50.860;0.258;2022-10-17T12:30:14;17.80;99.90
41762;DHT22;27441;50.860;0.258;2022-10-17T12:35:20;17.80;99.90
41762;DHT22;27441;50.860;0.258;2022-10-17T12:43:00;17.70;99.90
41762;DHT22;27441;50.860;0.258;2022-10-17T12:51:07;17.50;99.90
41762;DHT22;27441;50.860;0.258;2022-10-17T12:56:02;17.50;99.90
41762;DHT22;27441;50.860;0.258;2022-10-17T12:58:28;17.60;99.90
41762;DHT22;27441;50.860;0.258;2022-10-17T13:00:56;17.50;99.90
41762;DHT22;27441;50.860;0.258;2022-10-17T13:03:29;17.60;99.90
41762;DHT22;27441;50.860;0.258;2022-10-17T13:06:05;17.60;99.90
41762;DHT22;27441;50.860;0.258;2022-10-17T13:08:38;17.50;99.90
41762;DHT22;27441;50.860;0.258;2022-10-17T13:11:05;17.40;99.90
41762;DHT22;27441;50.860;0.258;2022-10-17T13:18:54;17.20;99.90
41762;DHT22;27441;50.860;0.258;2022-10-17T13:21:19;17.20;99.90
41762;DHT22;27441;50.860;0.258;2022-10-17T13:23:46;17.10;99.90
41762;DHT22;27441;50.860;0.258;2022-10-17T13:26:19;17.10;99.90
41762;DHT22;27441;50.860;0.258;2022-10-17T13:31:37;17.10;99.90
41762;DHT22;27441;50.860;0.258;2022-10-17T13:34:05;17.10;99.90
41762;DHT22;27441;50.860;0.258;2022-10-17T13:36:32;17.10;99.90
41762;DHT22;27441;50.860;0.258;2022-10-17T13:39:03;17.10;99.90
41762;DHT22;27441;50.860;0.258;2022-10-17T13:41:31;17.10;99.90
41762;DHT22;27441;50.860;0.258;2022-10-17T13:44:01;17.10;99.90
41762;DHT22;27441;50.860;0.258;2022-10-17T13:46:30;17.10;99.90
41762;DHT22;27441;50.860;0.258;2022-10-17T13:49:10;17.10;99.90
41762;DHT22;27441;50.860;0.258;2022-10-17T13:51:42;17.10;99.90
41762;DHT22;27441;50.860;0.258;2022-10-17T13:54:31;17.00;99.90
41762;DHT22;27441;50.860;0.258;2022-10-17T13:56:56;17.00;99.90
41762;DHT22;27441;50.860;0.258;2022-10-17T13:59:25;17.00;99.90
41762;DHT22;27441;50.860;0.258;2022-10-17T14:01:52;17.00;99.90
41762;DHT22;27441;50.860;0.258;2022-10-17T14:04:19;17.00;99.90
41762;DHT22;27441;50.860;0.258;2022-10-17T14:06:46;17.00;99.90
41762;DHT22;27441;50.860;0.258;2022-10-17T14:11:44;16.90;99.90
41762;DHT22;27441;50.860;0.258;2022-10-17T14:14:22;16.90;99.90
41762;DHT22;27441;50.860;0.258;2022-10-17T14:16:50;16.90;99.90
41762;DHT22;27441;50.860;0.258;2022-10-17T14:19:32;16.90;99.90
41762;DHT22;27441;50.860;0.258;2022-10-17T14:24:47;16.90;99.90
41762;DHT22;27441;50.860;0.258;2022-10-17T14:27:34;16.90;99.90
41762;DHT22;27441;50.860;0.258;2022-10-17T14:30:05;16.90;99.90
41762;DHT22;27441;50.860;0.258;2022-10-17T14:32:36;16.90;99.90
41762;DHT22;27441;50.860;0.258;2022-10-17T14:35:04;16.80;99.90
41762;DHT22;27441;50.860;0.258;2022-10-17T14:37:50;16.80;99.90
41762;DHT22;27441;50.860;0.258;2022-10-17T14:40:19;16.80;99.90
41762;DHT22;27441;50.860;0.258;2022-10-17T14:42:46;16.80;99.90
41762;DHT22;27441;50.860;0.258;2022-10-17T14:45:16;16.70;99.90
41762;DHT22;27441;50.860;0.258;2022-10-17T14:47:48;16.80;99.90
41762;DHT22;27441;50.860;0.258;2022-10-17T14:52:40;16.70;99.90
41762;DHT22;27441;50.860;0.258;2022-10-17T14:55:34;16.70;99.90
41762;DHT22;27441;50.860;0.258;2022-10-17T14:58:00;16.70;99.90
41762;DHT22;27441;50.860;0.258;2022-10-17T15:00:26;16.70;99.90
41762;DHT22;27441;50.860;0.258;2022-10-17T15:02:54;16.60;99.90
41762;DHT22;27441;50.860;0.258;2022-10-17T15:05:20;16.60;99.90
41762;DHT22;27441;50.860;0.258;2022-10-17T15:07:48;16.70;99.90
41762;DHT22;27441;50.860;0.258;2022-10-17T15:10:26;16.70;99.90
41762;DHT22;27441;50.860;0.258;2022-10-17T15:12:52;16.70;99.90
41762;DHT22;27441;50.860;0.258;2022-10-17T15:15:18;16.70;99.90
41762;DHT22;27441;50.860;0.258;2022-10-17T15:17:44;16.60;99.90
41762;DHT22;27441;50.860;0.258;2022-10-17T15:20:14;16.60;99.90
41762;DHT22;27441;50.860;0.258;2022-10-17T15:22:40;16.60;99.90
41762;DHT22;27441;50.860;0.258;2022-10-17T15:25:06;16.50;99.90
41762;DHT22;27441;50.860;0.258;2022-10-17T15:27:32;16.50;99.90
41762;DHT22;27441;50.860;0.258;2022-10-17T15:29:58;16.50;99.90
41762;DHT22;27441;50.860;0.258;2022-10-17T15:32:23;16.40;99.90
41762;DHT22;27441;50.860;0.258;2022-10-17T15:34:49;16.40;99.90
41762;DHT22;27441;50.860;0.258;2022-10-17T15:37:21;16.40;99.90
41762;DHT22;27441;50.860;0.258;2022-10-17T15:39:49;16.40;99.90
41762;DHT22;27441;50.860;0.258;2022-10-17T15:42:26;16.40;99.90
41762;DHT22;27441;50.860;0.258;2022-10-17T15:44:53;16.40;99.90
41762;DHT22;27441;50.860;0.258;2022-10-17T15:47:29;16.40;99.90
41762;DHT22;27441;50.860;0.258;2022-10-17T15:49:57;16.30;99.90
41762;DHT22;27441;50.860;0.258;2022-10-17T15:52:24;16.30;99.90
41762;DHT22;27441;50.860;0.258;2022-10-17T15:54:50;16.30;99.90
41762;DHT22;27441;50.860;0.258;2022-10-17T15:57:29;16.30;99.90
41762;DHT22;27441;50.860;0.258;2022-10-17T15:59:56;16.30;99.90
41762;DHT22;27441;50.860;0.258;2022-10-17T16:02:23;16.20;99.90
41762;DHT22;27441;50.860;0.258;2022-10-17T16:04:50;16.20;99.90
41762;DHT22;27441;50.860;0.258;2022-10-17T16:07:17;16.10;99.90
41762;DHT22;27441;50.860;0.258;2022-10-17T16:09:42;16.10;99.90
41762;DHT22;27441;50.860;0.258;2022-10-17T16:12:18;16.10;99.90
41762;DHT22;27441;50.860;0.258;2022-10-17T16:14:45;16.10;99.90
41762;DHT22;27441;50.860;0.258;2022-10-17T16:17:15;16.00;99.90
41762;DHT22;27441;50.860;0.258;2022-10-17T16:19:41;16.00;99.90
41762;DHT22;27441;50.860;0.258;2022-10-17T16:22:20;16.00;99.90
41762;DHT22;27441;50.860;0.258;2022-10-17T16:24:49;16.00;99.90
41762;DHT22;27441;50.860;0.258;2022-10-17T16:27:14;15.90;99.90
41762;DHT22;27441;50.860;0.258;2022-10-17T16:29:40;15.90;99.90
41762;DHT22;27441;50.860;0.258;2022-10-17T16:32:07;15.80;99.90
41762;DHT22;27441;50.860;0.258;2022-10-17T16:34:33;15.80;99.90
41762;DHT22;27441;50.860;0.258;2022-10-17T16:36:59;15.80;99.90
41762;DHT22;27441;50.860;0.258;2022-10-17T16:39:24;15.80;99.90
41762;DHT22;27441;50.860;0.258;2022-10-17T16:41:50;15.70;99.90
41762;DHT22;27441;50.860;0.258;2022-10-17T16:44:16;15.60;99.90
41762;DHT22;27441;50.860;0.258;2022-10-17T16:46:42;15.50;99.90
41762;DHT22;27441;50.860;0.258;2022-10-17T16:49:08;15.50;99.90
41762;DHT22;27441;50.860;0.258;2022-10-17T16:51:34;15.50;99.90
41762;DHT22;27441;50.860;0.258;2022-10-17T16:54:00;15.40;99.90
41762;DHT22;27441;50.860;0.258;2022-10-17T16:56:27;15.30;99.90
41762;DHT22;27441;50.860;0.258;2022-10-17T16:58:54;15.30;99.90
41762;DHT22;27441;50.860;0.258;2022-10-17T17:01:23;15.30;99.90
41762;DHT22;27441;50.860;0.258;2022-10-17T17:03:50;15.20;99.90
41762;DHT22;27441;50.860;0.258;2022-10-17T17:06:23;15.10;99.90
41762;DHT22;27441;50.860;0.258;2022-10-17T17:08:49;15.10;99.90
41762;DHT22;27441;50.860;0.258;2022-10-17T17:11:17;15.10;99.90
41762;DHT22;27441;50.860;0.258;2022-10-17T17:13:43;15.00;99.90
41762;DHT22;27441;50.860;0.258;2022-10-17T17:16:14;15.00;99.90
41762;DHT22;27441;50.860;0.258;2022-10-17T17:18:40;14.90;99.90
41762;DHT22;27441;50.860;0.258;2022-10-17T17:21:08;14.90;99.90
41762;DHT22;27441;50.860;0.258;2022-10-17T17:23:37;14.90;99.90
41762;DHT22;27441;50.860;0.258;2022-10-17T17:26:06;14.80;99.90
41762;DHT22;27441;50.860;0.258;2022-10-17T17:28:33;14.80;99.90
41762;DHT22;27441;50.860;0.258;2022-10-17T17:30:59;14.80;99.90
41762;DHT22;27441;50.860;0.258;2022-10-17T17:33:26;14.70;99.90
41762;DHT22;27441;50.860;0.258;2022-10-17T17:35:54;14.70;99.90
41762;DHT22;27441;50.860;0.258;2022-10-17T17:38:21;14.70;99.90
41762;DHT22;27441;50.860;0.258;2022-10-17T17:40:46;14.70;99.90
41762;DHT22;27441;50.860;0.258;2022-10-17T17:43:13;14.60;99.90
41762;DHT22;27441;50.860;0.258;2022-10-17T17:45:39;14.60;99.90
41762;DHT22;27441;50.860;0.258;2022-10-17T17:48:04;14.60;99.90
41762;DHT22;27441;50.860;0.258;2022-10-17T17:50:30;14.60;99.90